Date,TemperatureHighF,TemperatureAvgF,TemperatureLowF,DewpointHighF,DewpointAvgF,DewpointLowF,HumidityHigh,HumidityAvg,HumidityLow,PressureMaxIn,PressureMinIn,WindSpeedMaxMPH,WindSpeedAvgMPH,GustSpeedMaxMPH,PrecipitationSumIn
2013-1-1,17,9,3,12,5,0,92,85,69,0.00,40.00,9,3,19,0.00
2013-1-2,23,13,4,10,6,-1,91,77,52,0.00,40.00,11,5,30,0.00
2013-1-3,24,12,2,7,-3,-15,76,53,31,0.00,40.00,5,3,12,0.00
2013-1-4,44,22,12,12,-2,-12,55,37,15,0.00,40.00,5,2,10,0.01
2013-1-5,27,17,8,12,1,-9,71,50,30,0.00,40.00,7,3,11,0.01
2013-1-6,33,26,19,12,3,-4,52,37,22,0.00,40.00,18,10,29,0.00
2013-1-7,33,23,16,16,7,-1,77,50,32,0.00,40.00,13,7,24,0.00
2013-1-8,33,24,19,26,18,12,93,79,55,0.00,40.00,13,7,32,0.00
2013-1-9,41,30,21,21,17,9,94,61,33,0.00,40.00,16,11,29,0.00
2013-1-10,37,34,29,20,12,5,70,41,29,0.00,40.00,22,16,47,0.00
2013-1-11,29,10,-6,20,5,-10,96,81,62,0.00,40.00,16,7,33,0.00
2013-1-12,3,-4,-8,-2,-8,-12,82,81,78,0.00,40.00,4,2,13,0.00
2013-1-13,6,-3,-12,0,-8,-16,84,80,72,0.00,40.00,5,2,13,0.00
2013-1-14,2,-5,-11,-4,-10,-15,82,79,71,0.00,40.00,12,4,20,0.00
2013-1-15,17,6,-6,10,2,-10,89,81,63,0.00,40.00,8,4,18,0.00
2013-1-16,29,16,11,17,10,5,91,78,54,0.00,40.00,7,4,19,0.00
2013-1-17,33,22,13,16,9,-1,83,60,38,0.00,40.00,11,4,19,0.02
2013-1-18,35,25,18,16,8,1,62,48,32,0.00,40.00,13,6,22,0.02
2013-1-19,34,26,20,15,8,0,62,48,32,0.00,40.00,13,5,21,0.00
2013-1-20,33,24,16,16,10,5,79,56,36,0.00,40.00,15,4,25,0.00
2013-1-21,39,26,15,19,10,5,84,53,28,0.00,40.00,10,5,26,0.00
2013-1-22,39,29,19,15,6,-5,58,40,21,0.00,40.00,10,4,19,0.00
2013-1-23,42,34,28,9,3,-2,36,27,21,0.00,40.00,13,8,29,0.00
2013-1-24,37,33,29,31,20,7,99,63,31,0.00,40.00,18,9,34,0.00
2013-1-25,39,30,25,27,24,20,97,79,49,0.00,40.00,21,12,36,0.00
2013-1-26,41,33,27,30,26,20,93,74,59,0.00,40.00,13,7,26,0.00
2013-1-27,38,33,30,30,27,25,97,79,65,0.00,40.00,15,9,31,0.00
2013-1-28,31,23,10,30,21,8,99,94,79,0.00,40.00,8,3,26,0.00
2013-1-29,24,10,0,16,6,-2,92,84,55,0.00,40.00,17,4,26,0.00
2013-1-30,22,14,4,18,10,1,91,85,74,0.00,40.00,7,4,20,0.00
2013-1-31,38,25,18,25,19,15,95,79,49,0.00,40.00,8,4,21,0.01
2013-2-1,32,24,20,25,21,19,98,88,63,0.00,40.00,10,5,23,0.01
2013-2-2,41,24,14,27,16,11,95,73,32,0.00,40.00,9,4,20,0.01
2013-2-3,33,26,19,21,15,10,81,66,45,0.00,40.00,12,5,22,0.01
2013-2-4,38,26,18,21,14,8,77,61,35,0.00,40.00,13,5,27,0.00
2013-2-5,38,29,19,20,17,12,86,63,44,0.00,40.00,14,7,25,0.00
2013-2-6,41,31,23,24,18,8,93,60,31,0.00,40.00,8,4,16,0.00
2013-2-7,33,24,16,20,10,-2,97,60,28,0.00,40.00,13,7,25,0.00
2013-2-8,44,30,23,25,13,-1,87,51,30,0.00,40.00,14,7,24,0.00
2013-2-9,22,19,17,19,16,14,94,87,77,0.00,40.00,14,11,27,0.00
2013-2-10,17,13,0,16,11,-3,94,91,84,0.00,40.00,14,8,27,0.00
2013-2-11,20,7,-2,14,3,-5,91,86,74,0.00,40.00,7,2,14,0.00
2013-2-12,18,10,1,14,5,-2,93,82,65,0.00,40.00,12,4,23,0.00
2013-2-13,30,20,12,26,16,10,96,86,61,0.00,40.00,10,4,21,0.00
2013-2-14,20,16,12,19,14,10,98,92,88,0.00,40.00,19,6,56,0.00
2013-2-15,26,18,11,20,13,9,94,84,69,0.00,40.00,10,4,21,0.00
2013-2-16,34,25,15,27,16,9,92,71,47,0.00,40.00,10,5,20,0.00
2013-2-17,32,26,18,23,15,7,96,66,44,0.00,40.00,13,8,27,0.01
2013-2-18,28,17,10,19,13,4,94,85,57,0.00,40.00,8,3,19,0.01
2013-2-19,34,24,14,12,3,-5,64,41,25,0.00,40.00,16,10,27,0.00
2013-2-20,47,26,16,23,9,-3,96,53,19,0.00,40.00,9,4,16,0.00
2013-2-21,21,15,13,17,13,11,96,92,86,0.00,40.00,6,3,15,0.00
2013-2-22,24,16,10,13,10,8,94,80,53,0.00,40.00,14,5,24,0.00
2013-2-23,24,17,11,21,15,9,96,91,74,0.00,40.00,27,10,34,0.00
2013-2-24,23,17,13,21,14,8,94,92,86,0.00,40.00,38,18,197,0.00
2013-2-25,24,15,5,13,8,2,93,75,55,0.00,40.00,11,6,22,0.00
2013-2-26,21,17,14,19,15,11,95,92,73,0.00,40.00,33,10,170,0.00
2013-2-27,25,14,5,15,9,3,93,82,63,0.00,40.00,8,3,17,0.00
2013-2-28,29,17,7,20,9,-2,90,70,46,0.00,40.00,9,4,18,0.00
2013-3-1,37,27,19,26,17,9,81,64,40,0.00,40.00,4,3,14,0.00
2013-3-2,40,32,22,31,24,16,95,75,54,0.00,40.00,14,5,18,0.01
2013-3-3,38,33,30,30,26,21,89,75,63,0.00,40.00,15,10,28,0.01
2013-3-4,25,16,7,22,8,-2,97,72,37,0.00,40.00,16,10,41,0.00
2013-3-5,32,19,2,13,4,-3,89,56,28,0.00,40.00,13,6,24,0.00
2013-3-6,44,34,27,24,13,2,51,41,29,0.00,40.00,21,11,34,0.01
2013-3-7,43,36,28,24,21,15,80,54,41,0.00,40.00,14,6,33,0.01
2013-3-8,52,37,32,24,13,-100,62,43,26,0.00,40.00,16,5,23,0.00
2013-3-9,33,24,19,29,20,14,98,86,65,0.00,40.00,23,14,45,0.00
2013-3-10,42,29,15,23,15,5,95,60,31,0.00,40.00,12,5,24,0.01
2013-3-11,32,26,19,25,20,16,95,78,63,0.00,40.00,15,6,33,0.01
2013-3-12,44,26,9,26,16,8,94,70,33,0.00,40.00,16,4,23,0.07
2013-3-13,53,37,27,30,24,19,85,62,30,0.00,40.00,12,5,22,0.04
2013-3-14,57,42,32,27,22,10,65,45,22,0.00,40.00,11,4,22,0.00
2013-3-15,59,45,35,26,20,14,70,38,22,0.00,40.00,12,6,26,0.00
2013-3-16,49,36,29,27,24,16,85,64,28,0.00,40.00,12,6,23,0.00
2013-3-17,34,29,15,29,15,2,97,60,28,0.00,40.00,22,12,46,0.00
2013-3-18,34,22,13,9,3,-2,83,45,22,0.00,40.00,13,7,31,0.00
2013-3-19,36,23,15,19,12,1,96,68,25,0.00,40.00,8,5,22,0.01
2013-3-20,40,29,15,30,10,-11,88,52,18,0.00,40.00,21,8,42,0.01
2013-3-21,33,28,20,30,26,19,96,90,83,0.00,40.00,26,9,38,0.00
2013-3-22,33,19,10,20,13,8,95,81,47,0.00,40.00,15,5,25,0.00
2013-3-23,30,13,4,12,4,-2,90,71,26,0.00,40.00,14,6,29,0.00
2013-3-24,20,10,3,10,4,-2,90,75,43,0.00,40.00,10,5,26,0.00
2013-3-25,29,16,2,9,3,-1,90,61,33,0.00,40.00,11,5,21,0.00
2013-3-26,38,27,16,30,14,1,97,59,39,0.00,40.00,8,4,21,0.12
2013-3-27,42,33,25,32,26,22,100,81,46,0.00,40.00,11,4,21,0.17
2013-3-28,56,48,38,24,19,14,44,32,23,0.00,40.00,5,4,16,0.01
2013-3-29,58,43,32,40,26,12,93,55,21,0.00,40.00,7,4,20,0.00
2013-3-30,46,35,29,34,28,20,98,77,43,0.00,40.00,9,4,22,0.07
2013-3-31,57,39,27,31,20,13,83,51,20,0.00,40.00,11,5,21,0.01
2013-4-1,46,35,28,28,22,15,75,59,40,0.00,40.00,12,7,21,0.00
2013-4-2,50,38,31,25,21,15,77,51,26,0.00,40.00,8,5,17,0.00
2013-4-3,60,40,29,43,23,14,91,55,23,0.00,40.00,7,3,25,0.04
2013-4-4,56,44,32,30,24,19,88,50,24,0.00,40.00,13,6,26,0.04
2013-4-5,52,45,34,35,25,18,82,47,33,0.00,40.00,19,10,42,0.00
2013-4-6,48,36,26,29,23,12,86,60,27,0.00,40.00,10,5,25,0.00
2013-4-7,42,36,29,29,26,19,90,67,42,0.00,40.00,22,10,37,0.00
2013-4-8,36,23,6,30,19,3,96,84,66,0.00,40.00,26,13,173,0.00
2013-4-9,6,4,1,3,0,-2,87,86,84,0.00,40.00,30,12,159,0.00
2013-4-10,28,15,3,18,8,0,89,76,54,0.00,40.00,5,3,16,0.02
2013-4-11,44,33,23,33,25,14,99,75,48,0.00,40.00,6,4,18,0.29
2013-4-12,41,30,24,31,24,17,99,79,46,0.00,40.00,15,4,31,0.15
2013-4-13,39,33,27,34,24,16,96,70,52,0.00,40.00,24,12,44,0.12
2013-4-14,31,24,17,25,15,4,98,71,35,0.00,40.00,13,8,32,0.00
2013-4-15,26,18,12,19,13,10,96,82,59,0.00,40.00,10,7,20,0.00
2013-4-16,18,13,11,16,11,9,92,90,86,0.00,40.00,15,12,195,0.00
2013-4-17,17,12,9,11,9,7,91,86,73,0.00,40.00,19,11,103,0.00
2013-4-18,10,10,10,8,8,8,90,90,90,0.00,40.00,3,3,16,0.00
2013-5-31,46,41,36,34,23,-100,92,65,56,0.00,40.00,15,-61,37,0.00
2013-6-1,60,45,33,35,33,32,98,68,34,0.00,40.00,7,4,27,0.01
2013-6-2,73,58,42,34,27,20,65,35,15,0.00,40.00,12,6,46,0.01
2013-6-3,65,58,40,37,21,8,77,27,12,0.00,40.00,15,9,44,0.00
2013-6-4,55,44,34,39,33,26,92,65,45,0.00,40.00,12,7,27,0.00
2013-6-5,63,47,30,37,29,14,100,58,15,0.00,40.00,8,4,17,0.00
2013-6-6,72,56,39,37,30,22,62,39,23,0.00,40.00,9,4,19,0.00
2013-6-7,73,59,44,41,35,25,79,44,18,0.00,40.00,8,4,21,0.00
2013-6-8,67,56,43,46,36,24,97,52,21,0.00,40.00,22,9,48,0.23
2013-6-9,82,64,46,36,30,24,68,33,13,0.00,40.00,9,4,27,0.12
2013-6-10,83,69,57,38,32,27,38,26,14,0.00,40.00,10,5,43,0.00
2013-6-11,75,67,56,34,26,15,43,23,11,0.00,40.00,20,8,41,0.00
2013-6-12,78,64,46,44,34,18,66,37,12,0.00,40.00,15,7,28,0.00
2013-6-13,75,66,58,45,37,27,60,37,19,0.00,40.00,29,11,55,0.00
2013-6-14,70,58,44,46,30,11,94,45,12,0.00,40.00,19,8,39,0.00
2013-6-15,69,55,41,40,34,15,88,51,13,0.00,40.00,9,6,22,0.00
2013-6-16,80,63,48,43,31,16,78,36,9,0.00,40.00,5,3,15,0.00
2013-6-17,72,59,48,46,40,34,92,52,26,0.00,40.00,8,5,23,0.00
2013-6-18,77,61,51,46,36,20,71,42,12,0.00,40.00,20,8,42,0.01
2013-6-19,79,66,53,41,23,6,62,27,6,0.00,40.00,22,14,43,0.01
2013-6-20,67,54,46,15,10,5,25,17,13,0.00,40.00,10,7,21,0.00
2013-6-22,69,58,45,49,41,27,96,56,26,0.00,40.00,19,9,45,0.00
2013-6-23,73,56,36,41,28,14,99,45,11,0.00,40.00,12,6,31,0.00
2013-6-24,77,67,55,35,21,12,42,19,10,0.00,40.00,18,8,33,0.00
2013-6-25,72,63,51,39,33,24,58,34,21,0.00,40.00,16,11,41,0.00
2013-6-26,82,69,53,39,34,27,48,29,14,0.00,40.00,12,8,33,0.00
2013-6-27,88,71,55,48,36,23,62,33,10,0.00,40.00,12,6,24,0.00
2013-6-28,85,69,56,47,43,33,60,42,17,0.00,40.00,12,7,22,0.00
2013-6-29,81,70,59,47,42,35,61,40,20,0.00,40.00,11,6,24,0.00
2013-6-30,74,64,51,53,46,41,94,55,34,0.00,40.00,13,5,26,0.17
2013-7-1,77,65,52,49,44,38,82,50,28,0.00,40.00,8,4,19,0.00
2013-7-2,77,66,57,45,40,34,58,41,21,0.00,40.00,7,5,21,0.00
2013-7-3,81,67,54,44,38,34,57,37,22,0.00,40.00,11,5,34,0.05
2013-7-4,80,66,54,52,44,38,89,49,25,0.00,40.00,11,4,23,0.26
2013-7-5,79,62,52,54,50,41,97,69,30,0.00,40.00,17,6,41,0.27
2013-7-6,81,61,50,53,48,26,92,68,14,0.00,40.00,11,6,41,0.24
2013-7-7,83,66,53,52,42,26,93,50,13,0.00,40.00,12,5,20,0.00
2013-7-8,77,64,49,47,42,33,88,47,23,0.00,40.00,13,5,26,0.00
2013-7-9,84,69,55,48,38,26,72,37,12,0.00,40.00,10,5,32,0.00
2013-7-10,87,72,60,49,34,-100,62,31,12,0.00,40.00,10,4,41,0.00
2013-7-11,89,78,64,50,33,21,55,24,9,0.00,40.00,13,8,28,0.00
2013-7-12,77,67,55,54,46,26,83,50,17,0.00,40.00,13,6,25,0.01
2013-7-13,75,65,56,52,46,35,75,54,24,0.00,40.00,15,4,25,0.01
2013-7-14,76,63,49,52,50,46,99,68,34,0.00,40.00,16,8,30,0.01
2013-7-15,81,67,57,55,50,39,82,58,28,0.00,40.00,9,6,18,0.00
2013-7-16,79,73,62,51,40,30,52,32,17,0.00,40.00,11,9,24,0.00
2013-7-17,83,69,52,51,45,38,66,44,26,0.00,40.00,6,4,15,0.00
2013-7-18,88,71,61,50,46,41,61,42,21,0.00,40.00,18,6,31,0.00
2013-7-19,80,66,54,49,47,43,84,52,28,0.00,40.00,21,6,34,0.00
2013-7-20,84,70,59,46,39,-100,58,35,14,0.00,40.00,11,6,24,0.00
2013-7-21,89,72,58,46,35,19,60,32,8,0.00,40.00,10,5,21,0.00
2013-7-22,87,72,54,48,33,5,72,34,5,0.00,40.00,17,6,27,0.00
2013-7-23,85,70,60,49,39,28,59,34,13,0.00,40.00,16,7,25,0.00
2013-7-24,80,67,55,53,46,39,71,50,30,0.00,40.00,8,6,20,0.02
2013-7-25,75,62,52,51,43,37,83,51,30,0.00,40.00,10,5,29,0.02
2013-7-26,82,65,50,46,39,24,72,44,12,0.00,40.00,8,5,20,0.01
2013-7-27,73,61,55,50,46,41,76,58,39,0.00,40.00,13,4,22,0.00
2013-7-28,77,61,51,50,46,35,93,62,22,0.00,40.00,23,4,39,0.05
2013-7-29,74,58,48,52,46,34,99,70,26,0.00,40.00,11,4,22,0.40
2013-7-30,75,62,52,48,43,35,76,54,27,0.00,40.00,10,6,24,0.40
2013-7-31,79,62,50,50,43,38,89,53,23,0.00,40.00,10,5,19,0.04
2013-8-1,83,68,59,51,42,34,63,42,17,0.00,40.00,22,8,40,0.04
2013-8-2,81,67,55,47,34,17,71,37,10,0.00,40.00,14,7,35,0.00
2013-8-3,79,66,53,53,47,29,89,56,22,0.00,40.00,17,6,32,0.00
2013-8-4,81,68,53,51,37,23,64,37,12,0.00,40.00,9,5,29,0.00
2013-8-5,83,65,52,56,45,22,97,57,12,0.00,40.00,10,4,38,0.00
2013-8-6,81,66,52,45,39,30,72,42,16,0.00,40.00,16,6,27,0.00
2013-8-7,79,64,52,47,41,26,75,49,14,0.00,40.00,12,5,23,0.00
2013-8-8,76,63,55,48,41,35,70,46,26,0.00,40.00,19,6,39,0.00
2013-8-9,72,58,49,48,42,37,93,57,34,0.00,40.00,11,5,26,0.19
2013-8-10,76,62,51,46,38,29,80,44,21,0.00,40.00,9,4,31,0.09
2013-8-11,77,63,55,45,38,32,64,42,20,0.00,40.00,9,5,17,0.00
2013-8-21,80,65,58,50,46,40,67,52,30,0.00,40.00,11,4,17,0.01
2013-8-22,83,65,54,52,46,36,73,52,19,0.00,40.00,13,6,36,0.00
2013-8-23,82,67,56,49,45,38,77,48,21,0.00,40.00,14,5,33,0.05
2013-8-24,75,63,54,48,43,35,71,52,25,0.00,40.00,17,8,31,0.01
2013-8-25,71,64,57,45,41,35,54,43,35,0.00,40.00,14,7,29,0.01
2013-8-26,75,65,56,50,46,40,78,52,30,0.00,40.00,13,10,27,0.00
2013-8-27,74,62,57,51,49,45,81,64,35,0.00,40.00,13,8,28,0.00
2013-9-24,65,51,39,33,27,22,64,42,21,0.00,40.00,17,10,35,0.01
2013-9-25,65,53,34,38,26,18,99,40,19,0.00,40.00,24,13,50,0.00
2013-9-26,57,40,32,40,35,32,100,84,46,0.00,40.00,14,6,36,0.42
2013-9-27,34,30,28,33,30,28,100,98,92,0.00,40.00,13,6,24,0.05
2013-9-28,48,36,27,35,31,27,100,82,59,0.00,40.00,18,9,35,0.69
2013-9-29,59,47,38,31,27,24,65,47,29,0.00,40.00,22,14,52,0.01
2013-9-30,64,54,45,32,28,25,54,38,27,0.00,40.00,24,15,54,0.01
2013-10-7,56,54,48,33,28,25,45,38,31,0.00,40.00,12,10,25,0.02
2013-10-8,55,50,47,39,34,32,59,54,43,0.00,40.00,10,8,23,0.02
2013-10-10,-200,0,200,-100,-100,-100,99,90,73,0.00,40.00,10,4,19,0.18
2013-10-11,-200,0,200,-100,-100,-100,98,95,93,0.00,40.00,9,5,25,0.28
2013-10-13,-200,0,200,-100,-100,-100,98,64,40,0.00,40.00,12,6,24,1.20
2013-10-14,-200,0,200,-100,-100,-100,100,98,97,0.00,40.00,25,9,40,0.28
2013-10-15,-200,0,200,-100,-100,-100,98,96,92,0.00,40.00,13,6,28,0.01
2013-10-16,-200,0,200,-100,-100,-100,98,83,56,0.00,40.00,15,5,23,0.04
2013-10-17,-200,0,200,-100,-100,-100,100,87,63,0.00,40.00,8,4,16,0.03
2013-10-18,-200,0,200,-100,-100,-100,93,65,56,0.00,40.00,9,6,22,0.02
2013-10-19,-200,0,200,-100,-100,-100,84,58,35,0.00,40.00,10,4,20,0.15
2013-10-20,-200,0,200,-100,-100,-100,98,78,57,0.00,40.00,11,4,18,0.08
2013-10-21,-200,0,200,-100,-100,-100,73,54,45,0.00,40.00,11,6,23,0.11
2013-10-22,-200,0,200,-100,-100,-100,69,57,38,0.00,40.00,11,6,25,0.01
2013-12-26,33,25,18,16,12,6,71,58,43,0.00,40.00,7,3,15,0.01
2013-12-27,39,30,24,19,17,15,71,57,44,0.00,40.00,8,5,18,0.01
2013-12-28,34,22,8,22,14,5,95,73,43,0.00,40.00,15,6,28,0.00
2013-12-29,19,14,6,15,11,4,91,87,78,0.00,40.00,12,5,24,0.00
2013-12-30,26,21,15,19,14,11,86,75,58,0.00,40.00,11,5,23,0.00
2013-12-31,31,26,23,25,21,17,97,80,62,0.00,40.00,13,7,25,0.00
2014-1-1,25,20,15,24,19,13,97,95,92,0.00,40.00,12,4,24,0.00